sensor_id;sensor_type;location;lat;lon;timestamp;temperature;humidity
7341;DHT22;6870;50.944;6.932;2023-01-28T00:02:04;18.80;31.20
7341;DHT22;6870;50.944;6.932;2023-01-28T00:04:32;19.10;31.70
7341;DHT22;6870;50.944;6.932;2023-01-28T00:07:01;19.00;31.70
7341;DHT22;6870;50.944;6.932;2023-01-28T00:09:29;18.50;31.40
7341;DHT22;6870;50.944;6.932;2023-01-28T00:11:57;18.60;31.50
7341;DHT22;6870;50.944;6.932;2023-01-28T00:14:25;18.90;31.80
7341;DHT22;6870;50.944;6.932;2023-01-28T00:16:53;19.10;32.20
7341;DHT22;6870;50.944;6.932;2023-01-28T00:19:22;18.60;31.50
7341;DHT22;6870;50.944;6.932;2023-01-28T00:21:50;18.70;31.70
7341;DHT22;6870;50.944;6.932;2023-01-28T00:24:18;18.70;31.70
7341;DHT22;6870;50.944;6.932;2023-01-28T00:26:46;18.60;31.50
7341;DHT22;6870;50.944;6.932;2023-01-28T00:29:14;18.90;31.80
7341;DHT22;6870;50.944;6.932;2023-01-28T00:31:42;18.60;31.30
7341;DHT22;6870;50.944;6.932;2023-01-28T00:34:10;18.50;31.60
7341;DHT22;6870;50.944;6.932;2023-01-28T00:36:39;18.50;31.70
7341;DHT22;6870;50.944;6.932;2023-01-28T00:39:10;18.30;31.50
7341;DHT22;6870;50.944;6.932;2023-01-28T00:41:40;18.40;31.50
7341;DHT22;6870;50.944;6.932;2023-01-28T00:44:08;18.70;31.80
7341;DHT22;6870;50.944;6.932;2023-01-28T00:46:37;19.00;32.10
7341;DHT22;6870;50.944;6.932;2023-01-28T00:49:07;18.60;31.80
7341;DHT22;6870;50.944;6.932;2023-01-28T00:51:35;18.60;32.40
7341;DHT22;6870;50.944;6.932;2023-01-28T00:54:05;18.70;32.50
7341;DHT22;6870;50.944;6.932;2023-01-28T00:56:33;18.80;32.90
7341;DHT22;6870;50.944;6.932;2023-01-28T00:59:02;18.30;33.50
7341;DHT22;6870;50.944;6.932;2023-01-28T01:01:30;18.60;33.10
7341;DHT22;6870;50.944;6.932;2023-01-28T01:03:58;18.50;33.10
7341;DHT22;6870;50.944;6.932;2023-01-28T01:06:30;18.50;33.40
7341;DHT22;6870;50.944;6.932;2023-01-28T01:08:59;18.50;33.50
7341;DHT22;6870;50.944;6.932;2023-01-28T01:11:29;18.60;33.60
7341;DHT22;6870;50.944;6.932;2023-01-28T01:13:58;18.20;33.50
7341;DHT22;6870;50.944;6.932;2023-01-28T01:16:28;18.60;34.00
7341;DHT22;6870;50.944;6.932;2023-01-28T01:18:58;18.60;34.00
7341;DHT22;6870;50.944;6.932;2023-01-28T01:21:27;18.70;34.20
7341;DHT22;6870;50.944;6.932;2023-01-28T01:23:56;18.90;34.00
7341;DHT22;6870;50.944;6.932;2023-01-28T01:26:25;19.00;33.90
7341;DHT22;6870;50.944;6.932;2023-01-28T01:28:54;18.80;34.20
7341;DHT22;6870;50.944;6.932;2023-01-28T01:31:23;18.80;34.20
7341;DHT22;6870;50.944;6.932;2023-01-28T01:33:51;18.60;33.60
7341;DHT22;6870;50.944;6.932;2023-01-28T01:36:19;18.50;34.10
7341;DHT22;6870;50.944;6.932;2023-01-28T01:38:52;18.60;34.20
7341;DHT22;6870;50.944;6.932;2023-01-28T01:41:26;18.40;34.20
7341;DHT22;6870;50.944;6.932;2023-01-28T01:43:58;18.30;34.10
7341;DHT22;6870;50.944;6.932;2023-01-28T01:46:33;18.60;34.70
7341;DHT22;6870;50.944;6.932;2023-01-28T01:49:10;18.60;34.30
7341;DHT22;6870;50.944;6.932;2023-01-28T01:51:42;18.80;34.70
7341;DHT22;6870;50.944;6.932;2023-01-28T01:54:12;18.50;34.30
7341;DHT22;6870;50.944;6.932;2023-01-28T01:56:42;18.80;33.60
7341;DHT22;6870;50.944;6.932;2023-01-28T01:59:16;18.50;33.60
7341;DHT22;6870;50.944;6.932;2023-01-28T02:01:48;18.40;34.30
7341;DHT22;6870;50.944;6.932;2023-01-28T02:04:19;18.60;33.80
7341;DHT22;6870;50.944;6.932;2023-01-28T02:06:50;18.60;34.50
7341;DHT22;6870;50.944;6.932;2023-01-28T02:09:23;18.40;34.40
7341;DHT22;6870;50.944;6.932;2023-01-28T02:11:55;18.60;34.10
7341;DHT22;6870;50.944;6.932;2023-01-28T02:14:27;18.40;34.40
7341;DHT22;6870;50.944;6.932;2023-01-28T02:16:58;18.60;34.30
7341;DHT22;6870;50.944;6.932;2023-01-28T02:19:31;18.70;34.60
7341;DHT22;6870;50.944;6.932;2023-01-28T02:22:18;18.30;34.00
7341;DHT22;6870;50.944;6.932;2023-01-28T02:25:18;18.40;35.00
7341;DHT22;6870;50.944;6.932;2023-01-28T02:28:22;18.50;34.80
7341;DHT22;6870;50.944;6.932;2023-01-28T02:31:00;18.60;35.90
7341;DHT22;6870;50.944;6.932;2023-01-28T02:33:38;18.60;34.90
7341;DHT22;6870;50.944;6.932;2023-01-28T02:36:16;18.60;34.60
7341;DHT22;6870;50.944;6.932;2023-01-28T02:38:52;19.00;34.90
7341;DHT22;6870;50.944;6.932;2023-01-28T02:41:24;18.50;34.50
7341;DHT22;6870;50.944;6.932;2023-01-28T02:43:56;18.60;35.00
7341;DHT22;6870;50.944;6.932;2023-01-28T02:46:34;18.90;34.90
7341;DHT22;6870;50.944;6.932;2023-01-28T02:49:25;19.00;34.80
7341;DHT22;6870;50.944;6.932;2023-01-28T02:52:12;18.90;34.80
7341;DHT22;6870;50.944;6.932;2023-01-28T02:54:49;18.60;34.60
7341;DHT22;6870;50.944;6.932;2023-01-28T02:57:29;19.00;35.00
7341;DHT22;6870;50.944;6.932;2023-01-28T03:00:07;18.70;34.90
7341;DHT22;6870;50.944;6.932;2023-01-28T03:02:43;18.60;35.10
7341;DHT22;6870;50.944;6.932;2023-01-28T03:05:20;18.60;35.60
7341;DHT22;6870;50.944;6.932;2023-01-28T03:07:58;18.40;35.70
7341;DHT22;6870;50.944;6.932;2023-01-28T03:10:27;18.50;36.10
7341;DHT22;6870;50.944;6.932;2023-01-28T03:12:56;18.30;36.00
7341;DHT22;6870;50.944;6.932;2023-01-28T03:15:46;18.30;36.00
7341;DHT22;6870;50.944;6.932;2023-01-28T03:18:37;18.60;35.70
7341;DHT22;6870;50.944;6.932;2023-01-28T03:21:30;18.60;36.40
7341;DHT22;6870;50.944;6.932;2023-01-28T03:24:22;18.40;36.50
7341;DHT22;6870;50.944;6.932;2023-01-28T03:27:12;18.40;36.30
7341;DHT22;6870;50.944;6.932;2023-01-28T03:30:04;18.90;36.30
7341;DHT22;6870;50.944;6.932;2023-01-28T03:32:54;18.70;36.10
7341;DHT22;6870;50.944;6.932;2023-01-28T03:35:41;18.80;35.70
7341;DHT22;6870;50.944;6.932;2023-01-28T03:38:27;18.80;36.30
7341;DHT22;6870;50.944;6.932;2023-01-28T03:41:09;18.70;36.50
7341;DHT22;6870;50.944;6.932;2023-01-28T03:43:37;18.70;36.20
7341;DHT22;6870;50.944;6.932;2023-01-28T03:46:06;18.70;36.20
7341;DHT22;6870;50.944;6.932;2023-01-28T03:48:34;18.50;35.90
7341;DHT22;6870;50.944;6.932;2023-01-28T03:51:03;18.80;36.10
7341;DHT22;6870;50.944;6.932;2023-01-28T03:53:31;18.90;36.60
7341;DHT22;6870;50.944;6.932;2023-01-28T03:55:59;18.50;36.00
7341;DHT22;6870;50.944;6.932;2023-01-28T03:58:27;18.50;36.40
7341;DHT22;6870;50.944;6.932;2023-01-28T04:01:15;18.80;36.40
7341;DHT22;6870;50.944;6.932;2023-01-28T04:03:45;18.90;36.30
7341;DHT22;6870;50.944;6.932;2023-01-28T04:06:13;18.70;36.70
7341;DHT22;6870;50.944;6.932;2023-01-28T04:08:41;18.80;36.70
7341;DHT22;6870;50.944;6.932;2023-01-28T04:11:18;18.60;37.10
7341;DHT22;6870;50.944;6.932;2023-01-28T04:13:47;18.30;37.30
7341;DHT22;6870;50.944;6.932;2023-01-28T04:16:16;18.60;37.50
7341;DHT22;6870;50.944;6.932;2023-01-28T04:18:47;18.50;37.40
7341;DHT22;6870;50.944;6.932;2023-01-28T04:21:15;18.80;37.90
7341;DHT22;6870;50.944;6.932;2023-01-28T04:23:43;18.60;37.60
7341;DHT22;6870;50.944;6.932;2023-01-28T04:26:11;18.60;37.80
7341;DHT22;6870;50.944;6.932;2023-01-28T04:28:39;18.60;37.40
7341;DHT22;6870;50.944;6.932;2023-01-28T04:31:08;18.60;37.90
7341;DHT22;6870;50.944;6.932;2023-01-28T04:33:36;19.10;38.30
7341;DHT22;6870;50.944;6.932;2023-01-28T04:36:06;18.90;38.10
7341;DHT22;6870;50.944;6.932;2023-01-28T04:38:34;18.90;37.90
7341;DHT22;6870;50.944;6.932;2023-01-28T04:41:02;18.90;37.90
7341;DHT22;6870;50.944;6.932;2023-01-28T04:43:30;19.00;38.20
7341;DHT22;6870;50.944;6.932;2023-01-28T04:45:58;18.90;38.20
7341;DHT22;6870;50.944;6.932;2023-01-28T04:48:26;18.80;38.30
7341;DHT22;6870;50.944;6.932;2023-01-28T04:50:56;18.90;38.60
7341;DHT22;6870;50.944;6.932;2023-01-28T04:53:25;18.60;37.80
7341;DHT22;6870;50.944;6.932;2023-01-28T04:55:53;18.60;37.90
7341;DHT22;6870;50.944;6.932;2023-01-28T04:58:22;18.60;38.60
7341;DHT22;6870;50.944;6.932;2023-01-28T05:00:53;18.50;38.70
7341;DHT22;6870;50.944;6.932;2023-01-28T05:03:23;18.90;39.20
7341;DHT22;6870;50.944;6.932;2023-01-28T05:05:52;18.90;38.70
7341;DHT22;6870;50.944;6.932;2023-01-28T05:08:20;18.80;39.50
7341;DHT22;6870;50.944;6.932;2023-01-28T05:10:49;18.90;39.30
7341;DHT22;6870;50.944;6.932;2023-01-28T05:13:18;18.60;39.10
7341;DHT22;6870;50.944;6.932;2023-01-28T05:15:50;18.90;39.20
7341;DHT22;6870;50.944;6.932;2023-01-28T05:18:21;18.90;39.90
7341;DHT22;6870;50.944;6.932;2023-01-28T05:20:49;19.00;38.90
7341;DHT22;6870;50.944;6.932;2023-01-28T05:23:17;18.90;39.00
7341;DHT22;6870;50.944;6.932;2023-01-28T05:25:46;18.70;38.40
7341;DHT22;6870;50.944;6.932;2023-01-28T05:28:16;19.10;39.10
7341;DHT22;6870;50.944;6.932;2023-01-28T05:30:44;19.00;38.70
7341;DHT22;6870;50.944;6.932;2023-01-28T05:33:12;18.90;38.80
7341;DHT22;6870;50.944;6.932;2023-01-28T05:35:41;18.70;38.70
7341;DHT22;6870;50.944;6.932;2023-01-28T05:38:09;18.90;38.80
7341;DHT22;6870;50.944;6.932;2023-01-28T05:40:40;19.00;38.90
7341;DHT22;6870;50.944;6.932;2023-01-28T05:43:09;18.80;38.50
7341;DHT22;6870;50.944;6.932;2023-01-28T05:45:38;18.70;38.00
7341;DHT22;6870;50.944;6.932;2023-01-28T05:48:07;18.70;38.50
7341;DHT22;6870;50.944;6.932;2023-01-28T05:50:35;19.00;38.50
7341;DHT22;6870;50.944;6.932;2023-01-28T05:53:04;19.00;38.10
7341;DHT22;6870;50.944;6.932;2023-01-28T05:55:32;18.90;38.80
7341;DHT22;6870;50.944;6.932;2023-01-28T05:58:00;19.20;38.80
7341;DHT22;6870;50.944;6.932;2023-01-28T06:00:29;18.80;38.40
7341;DHT22;6870;50.944;6.932;2023-01-28T06:02:58;18.90;38.80
7341;DHT22;6870;50.944;6.932;2023-01-28T06:05:26;19.10;39.00
7341;DHT22;6870;50.944;6.932;2023-01-28T06:07:54;18.80;38.20
7341;DHT22;6870;50.944;6.932;2023-01-28T06:10:23;18.90;38.60
7341;DHT22;6870;50.944;6.932;2023-01-28T06:12:51;18.80;38.20
7341;DHT22;6870;50.944;6.932;2023-01-28T06:15:21;18.70;37.60
7341;DHT22;6870;50.944;6.932;2023-01-28T06:17:50;18.90;38.40
7341;DHT22;6870;50.944;6.932;2023-01-28T06:20:19;18.80;38.10
7341;DHT22;6870;50.944;6.932;2023-01-28T06:22:49;18.70;37.70
7341;DHT22;6870;50.944;6.932;2023-01-28T06:25:17;19.20;38.50
7341;DHT22;6870;50.944;6.932;2023-01-28T06:27:46;19.10;38.90
7341;DHT22;6870;50.944;6.932;2023-01-28T06:30:14;19.20;38.60
7341;DHT22;6870;50.944;6.932;2023-01-28T06:32:43;18.90;38.30
7341;DHT22;6870;50.944;6.932;2023-01-28T06:35:11;19.10;38.20
7341;DHT22;6870;50.944;6.932;2023-01-28T06:37:41;18.70;38.10
7341;DHT22;6870;50.944;6.932;2023-01-28T06:40:10;18.90;38.10
7341;DHT22;6870;50.944;6.932;2023-01-28T06:42:39;18.80;38.00
7341;DHT22;6870;50.944;6.932;2023-01-28T06:45:08;19.10;38.60
7341;DHT22;6870;50.944;6.932;2023-01-28T06:47:37;18.90;39.20
7341;DHT22;6870;50.944;6.932;2023-01-28T06:50:06;19.00;38.60
7341;DHT22;6870;50.944;6.932;2023-01-28T06:52:35;19.10;38.70
7341;DHT22;6870;50.944;6.932;2023-01-28T06:55:05;19.00;38.80
7341;DHT22;6870;50.944;6.932;2023-01-28T06:57:33;18.90;38.60
7341;DHT22;6870;50.944;6.932;2023-01-28T07:00:05;18.70;38.60
7341;DHT22;6870;50.944;6.932;2023-01-28T07:02:38;19.00;39.10
7341;DHT22;6870;50.944;6.932;2023-01-28T07:05:07;18.80;38.70
7341;DHT22;6870;50.944;6.932;2023-01-28T07:07:36;19.10;39.20
7341;DHT22;6870;50.944;6.932;2023-01-28T07:10:11;18.80;38.70
7341;DHT22;6870;50.944;6.932;2023-01-28T07:12:40;19.10;39.20
7341;DHT22;6870;50.944;6.932;2023-01-28T07:15:11;19.10;38.90
7341;DHT22;6870;50.944;6.932;2023-01-28T07:17:41;18.70;38.60
7341;DHT22;6870;50.944;6.932;2023-01-28T07:20:11;19.00;39.60
7341;DHT22;6870;50.944;6.932;2023-01-28T07:22:42;18.70;39.00
7341;DHT22;6870;50.944;6.932;2023-01-28T07:25:13;19.10;39.40
7341;DHT22;6870;50.944;6.932;2023-01-28T07:27:49;18.80;39.20
7341;DHT22;6870;50.944;6.932;2023-01-28T07:30:19;19.10;39.60
7341;DHT22;6870;50.944;6.932;2023-01-28T07:32:52;19.10;39.80
7341;DHT22;6870;50.944;6.932;2023-01-28T07:35:20;18.70;39.30
7341;DHT22;6870;50.944;6.932;2023-01-28T07:37:52;19.10;39.60
7341;DHT22;6870;50.944;6.932;2023-01-28T07:40:23;18.80;39.50
7341;DHT22;6870;50.944;6.932;2023-01-28T07:42:52;18.90;38.90
7341;DHT22;6870;50.944;6.932;2023-01-28T07:45:21;18.80;40.00
7341;DHT22;6870;50.944;6.932;2023-01-28T07:47:54;18.90;38.70
7341;DHT22;6870;50.944;6.932;2023-01-28T07:50:23;18.90;39.40
7341;DHT22;6870;50.944;6.932;2023-01-28T07:52:52;19.20;39.20
7341;DHT22;6870;50.944;6.932;2023-01-28T07:55:21;19.20;39.20
7341;DHT22;6870;50.944;6.932;2023-01-28T07:57:51;19.00;39.50
7341;DHT22;6870;50.944;6.932;2023-01-28T08:00:21;19.10;39.50
7341;DHT22;6870;50.944;6.932;2023-01-28T08:02:54;19.00;39.20
7341;DHT22;6870;50.944;6.932;2023-01-28T08:05:22;19.00;39.30
7341;DHT22;6870;50.944;6.932;2023-01-28T08:07:52;18.80;39.50
7341;DHT22;6870;50.944;6.932;2023-01-28T08:10:22;18.80;39.40
7341;DHT22;6870;50.944;6.932;2023-01-28T08:12:51;19.00;39.50
7341;DHT22;6870;50.944;6.932;2023-01-28T08:15:20;19.10;39.30
7341;DHT22;6870;50.944;6.932;2023-01-28T08:17:48;18.80;39.60
7341;DHT22;6870;50.944;6.932;2023-01-28T08:20:16;18.70;39.50
7341;DHT22;6870;50.944;6.932;2023-01-28T08:22:44;18.70;39.30
7341;DHT22;6870;50.944;6.932;2023-01-28T08:25:12;19.00;39.70
7341;DHT22;6870;50.944;6.932;2023-01-28T08:27:42;18.80;40.30
7341;DHT22;6870;50.944;6.932;2023-01-28T08:30:11;18.90;39.50
7341;DHT22;6870;50.944;6.932;2023-01-28T08:32:40;19.00;39.50
7341;DHT22;6870;50.944;6.932;2023-01-28T08:35:08;19.30;39.20
7341;DHT22;6870;50.944;6.932;2023-01-28T08:37:36;18.60;38.80
7341;DHT22;6870;50.944;6.932;2023-01-28T08:40:06;18.70;39.70
7341;DHT22;6870;50.944;6.932;2023-01-28T08:42:34;18.70;39.50
7341;DHT22;6870;50.944;6.932;2023-01-28T08:45:05;19.00;39.60
7341;DHT22;6870;50.944;6.932;2023-01-28T08:47:34;18.70;39.20
7341;DHT22;6870;50.944;6.932;2023-01-28T08:50:03;19.30;40.00
7341;DHT22;6870;50.944;6.932;2023-01-28T08:52:31;18.70;38.90
7341;DHT22;6870;50.944;6.932;2023-01-28T08:54:59;19.10;39.70
7341;DHT22;6870;50.944;6.932;2023-01-28T08:57:27;18.90;39.50
7341;DHT22;6870;50.944;6.932;2023-01-28T08:59:55;19.10;39.30
7341;DHT22;6870;50.944;6.932;2023-01-28T09:02:24;18.90;38.90
7341;DHT22;6870;50.944;6.932;2023-01-28T09:04:58;19.20;39.40
7341;DHT22;6870;50.944;6.932;2023-01-28T09:07:26;18.70;39.20
7341;DHT22;6870;50.944;6.932;2023-01-28T09:09:54;19.00;39.70
7341;DHT22;6870;50.944;6.932;2023-01-28T09:12:22;18.60;38.90
7341;DHT22;6870;50.944;6.932;2023-01-28T09:14:51;18.80;39.70
7341;DHT22;6870;50.944;6.932;2023-01-28T09:17:20;19.40;40.10
7341;DHT22;6870;50.944;6.932;2023-01-28T09:19:50;18.70;39.60
7341;DHT22;6870;50.944;6.932;2023-01-28T09:22:18;18.80;39.70
7341;DHT22;6870;50.944;6.932;2023-01-28T09:24:46;19.40;40.10
7341;DHT22;6870;50.944;6.932;2023-01-28T09:27:14;19.00;39.30
7341;DHT22;6870;50.944;6.932;2023-01-28T09:29:43;18.90;39.50
7341;DHT22;6870;50.944;6.932;2023-01-28T09:32:11;19.20;39.80
7341;DHT22;6870;50.944;6.932;2023-01-28T09:34:39;19.30;40.00
7341;DHT22;6870;50.944;6.932;2023-01-28T09:37:08;19.10;39.20
7341;DHT22;6870;50.944;6.932;2023-01-28T09:39:37;18.90;40.40
7341;DHT22;6870;50.944;6.932;2023-01-28T09:42:24;19.20;39.60
7341;DHT22;6870;50.944;6.932;2023-01-28T09:45:03;18.80;39.00
7341;DHT22;6870;50.944;6.932;2023-01-28T09:47:38;18.90;39.60
7341;DHT22;6870;50.944;6.932;2023-01-28T09:50:11;19.10;39.90
7341;DHT22;6870;50.944;6.932;2023-01-28T09:52:44;19.10;39.90
7341;DHT22;6870;50.944;6.932;2023-01-28T09:55:18;19.30;33.00
7341;DHT22;6870;50.944;6.932;2023-01-28T09:57:52;17.60;16.10
7341;DHT22;6870;50.944;6.932;2023-01-28T10:00:22;16.70;22.90
7341;DHT22;6870;50.944;6.932;2023-01-28T10:03:07;17.20;27.50
7341;DHT22;6870;50.944;6.932;2023-01-28T10:05:51;18.00;26.10
7341;DHT22;6870;50.944;6.932;2023-01-28T10:08:39;18.40;25.60
7341;DHT22;6870;50.944;6.932;2023-01-28T10:11:23;19.00;25.60
7341;DHT22;6870;50.944;6.932;2023-01-28T10:14:03;19.00;25.70
7341;DHT22;6870;50.944;6.932;2023-01-28T10:16:38;19.20;26.20
7341;DHT22;6870;50.944;6.932;2023-01-28T10:19:14;18.80;25.70
7341;DHT22;6870;50.944;6.932;2023-01-28T10:21:47;19.50;26.80
7341;DHT22;6870;50.944;6.932;2023-01-28T10:24:29;19.20;26.10
7341;DHT22;6870;50.944;6.932;2023-01-28T10:27:01;19.50;27.10
7341;DHT22;6870;50.944;6.932;2023-01-28T10:29:32;19.20;27.00
7341;DHT22;6870;50.944;6.932;2023-01-28T10:32:05;19.40;27.30
7341;DHT22;6870;50.944;6.932;2023-01-28T10:34:43;19.10;27.10
7341;DHT22;6870;50.944;6.932;2023-01-28T10:37:12;19.70;27.70
7341;DHT22;6870;50.944;6.932;2023-01-28T10:39:43;19.50;27.80
7341;DHT22;6870;50.944;6.932;2023-01-28T10:42:19;19.40;28.00
7341;DHT22;6870;50.944;6.932;2023-01-28T10:44:54;19.10;27.90
7341;DHT22;6870;50.944;6.932;2023-01-28T10:47:30;19.60;28.30
7341;DHT22;6870;50.944;6.932;2023-01-28T10:50:00;19.60;28.40
7341;DHT22;6870;50.944;6.932;2023-01-28T10:52:29;19.60;28.40
7341;DHT22;6870;50.944;6.932;2023-01-28T10:55:04;19.60;28.40
7341;DHT22;6870;50.944;6.932;2023-01-28T10:57:33;19.70;28.50
7341;DHT22;6870;50.944;6.932;2023-01-28T11:00:22;19.70;28.90
7341;DHT22;6870;50.944;6.932;2023-01-28T11:02:51;19.70;29.00
7341;DHT22;6870;50.944;6.932;2023-01-28T11:05:22;19.50;28.70
7341;DHT22;6870;50.944;6.932;2023-01-28T11:08:09;19.40;28.70
7341;DHT22;6870;50.944;6.932;2023-01-28T11:10:42;19.60;28.90
7341;DHT22;6870;50.944;6.932;2023-01-28T11:13:16;19.60;28.80
7341;DHT22;6870;50.944;6.932;2023-01-28T11:15:46;19.60;29.20
7341;DHT22;6870;50.944;6.932;2023-01-28T11:18:18;19.60;29.20
7341;DHT22;6870;50.944;6.932;2023-01-28T11:20:52;19.70;28.90
7341;DHT22;6870;50.944;6.932;2023-01-28T11:23:24;19.60;29.70
7341;DHT22;6870;50.944;6.932;2023-01-28T11:26:03;19.50;29.50
7341;DHT22;6870;50.944;6.932;2023-01-28T11:28:33;19.70;29.70
7341;DHT22;6870;50.944;6.932;2023-01-28T11:31:03;19.60;29.50
7341;DHT22;6870;50.944;6.932;2023-01-28T11:33:35;19.60;29.60
7341;DHT22;6870;50.944;6.932;2023-01-28T11:36:06;19.90;29.40
7341;DHT22;6870;50.944;6.932;2023-01-28T11:38:47;19.70;29.00
7341;DHT22;6870;50.944;6.932;2023-01-28T11:41:24;19.70;28.90
7341;DHT22;6870;50.944;6.932;2023-01-28T11:43:55;19.60;28.70
7341;DHT22;6870;50.944;6.932;2023-01-28T11:46:46;19.90;29.00
7341;DHT22;6870;50.944;6.932;2023-01-28T11:49:47;19.90;28.90
7341;DHT22;6870;50.944;6.932;2023-01-28T11:52:34;19.60;29.20
7341;DHT22;6870;50.944;6.932;2023-01-28T11:55:38;19.80;28.70
7341;DHT22;6870;50.944;6.932;2023-01-28T11:58:19;19.60;28.60
7341;DHT22;6870;50.944;6.932;2023-01-28T12:00:59;19.70;28.70
7341;DHT22;6870;50.944;6.932;2023-01-28T12:03:41;19.90;28.80
7341;DHT22;6870;50.944;6.932;2023-01-28T12:06:35;19.60;28.50
7341;DHT22;6870;50.944;6.932;2023-01-28T12:09:16;19.70;28.70
7341;DHT22;6870;50.944;6.932;2023-01-28T12:12:02;19.70;28.60
7341;DHT22;6870;50.944;6.932;2023-01-28T12:14:59;19.60;28.50
7341;DHT22;6870;50.944;6.932;2023-01-28T12:17:43;19.70;28.90
7341;DHT22;6870;50.944;6.932;2023-01-28T12:20:23;19.50;29.00
7341;DHT22;6870;50.944;6.932;2023-01-28T12:23:13;19.80;28.60
7341;DHT22;6870;50.944;6.932;2023-01-28T12:26:05;19.80;28.60
7341;DHT22;6870;50.944;6.932;2023-01-28T12:28:56;19.70;28.50
7341;DHT22;6870;50.944;6.932;2023-01-28T12:31:57;19.50;28.40
7341;DHT22;6870;50.944;6.932;2023-01-28T12:34:57;19.70;28.50
7341;DHT22;6870;50.944;6.932;2023-01-28T12:37:47;19.60;28.40
7341;DHT22;6870;50.944;6.932;2023-01-28T12:40:59;19.40;28.30
7341;DHT22;6870;50.944;6.932;2023-01-28T12:43:45;19.40;28.30
7341;DHT22;6870;50.944;6.932;2023-01-28T12:46:24;19.60;28.50
7341;DHT22;6870;50.944;6.932;2023-01-28T12:49:02;19.70;28.00
7341;DHT22;6870;50.944;6.932;2023-01-28T12:51:41;19.70;28.50
7341;DHT22;6870;50.944;6.932;2023-01-28T12:54:26;19.40;28.10
7341;DHT22;6870;50.944;6.932;2023-01-28T12:56:58;19.70;28.40
7341;DHT22;6870;50.944;6.932;2023-01-28T12:59:29;19.90;28.50
7341;DHT22;6870;50.944;6.932;2023-01-28T13:02:13;19.80;28.50
7341;DHT22;6870;50.944;6.932;2023-01-28T13:04:50;19.60;28.20
7341;DHT22;6870;50.944;6.932;2023-01-28T13:07:25;19.50;28.20
7341;DHT22;6870;50.944;6.932;2023-01-28T13:10:01;19.70;28.40
7341;DHT22;6870;50.944;6.932;2023-01-28T13:12:31;19.80;28.50
7341;DHT22;6870;50.944;6.932;2023-01-28T13:15:00;19.80;28.50
7341;DHT22;6870;50.944;6.932;2023-01-28T13:17:30;19.60;28.40
7341;DHT22;6870;50.944;6.932;2023-01-28T13:20:01;19.80;28.40
7341;DHT22;6870;50.944;6.932;2023-01-28T13:22:43;19.70;28.40
7341;DHT22;6870;50.944;6.932;2023-01-28T13:25:19;19.70;28.30
7341;DHT22;6870;50.944;6.932;2023-01-28T13:27:55;19.60;28.50
7341;DHT22;6870;50.944;6.932;2023-01-28T13:30:27;19.60;28.50
7341;DHT22;6870;50.944;6.932;2023-01-28T13:32:59;19.80;28.60
7341;DHT22;6870;50.944;6.932;2023-01-28T13:35:34;19.70;28.50
7341;DHT22;6870;50.944;6.932;2023-01-28T13:38:12;19.60;28.40
7341;DHT22;6870;50.944;6.932;2023-01-28T13:40:51;19.90;28.20
7341;DHT22;6870;50.944;6.932;2023-01-28T13:43:26;19.80;27.40
7341;DHT22;6870;50.944;6.932;2023-01-28T13:46:05;20.60;27.00
7341;DHT22;6870;50.944;6.932;2023-01-28T13:48:40;20.70;26.20
7341;DHT22;6870;50.944;6.932;2023-01-28T13:51:17;20.50;25.80
7341;DHT22;6870;50.944;6.932;2023-01-28T13:53:52;20.90;25.90
7341;DHT22;6870;50.944;6.932;2023-01-28T13:56:26;20.60;25.50
7341;DHT22;6870;50.944;6.932;2023-01-28T13:59:17;20.60;25.20
7341;DHT22;6870;50.944;6.932;2023-01-28T14:05:26;20.80;25.00
7341;DHT22;6870;50.944;6.932;2023-01-28T14:08:19;21.10;25.00
7341;DHT22;6870;50.944;6.932;2023-01-28T14:11:05;20.80;23.90
7341;DHT22;6870;50.944;6.932;2023-01-28T14:14:05;21.30;24.80
7341;DHT22;6870;50.944;6.932;2023-01-28T14:16:51;21.30;24.80
7341;DHT22;6870;50.944;6.932;2023-01-28T14:19:27;21.20;24.40
7341;DHT22;6870;50.944;6.932;2023-01-28T14:21:57;21.00;24.20
7341;DHT22;6870;50.944;6.932;2023-01-28T14:24:27;21.00;24.30
7341;DHT22;6870;50.944;6.932;2023-01-28T14:27:00;20.80;24.40
7341;DHT22;6870;50.944;6.932;2023-01-28T14:29:43;20.50;24.40
7341;DHT22;6870;50.944;6.932;2023-01-28T14:32:17;20.70;24.70
7341;DHT22;6870;50.944;6.932;2023-01-28T14:34:47;20.60;25.00
7341;DHT22;6870;50.944;6.932;2023-01-28T14:37:18;20.40;24.70
7341;DHT22;6870;50.944;6.932;2023-01-28T14:39:52;20.70;25.40
7341;DHT22;6870;50.944;6.932;2023-01-28T14:42:23;20.50;25.40
7341;DHT22;6870;50.944;6.932;2023-01-28T14:45:00;20.30;25.20
7341;DHT22;6870;50.944;6.932;2023-01-28T14:47:45;20.10;25.30
7341;DHT22;6870;50.944;6.932;2023-01-28T14:50:26;20.50;25.40
7341;DHT22;6870;50.944;6.932;2023-01-28T14:53:25;20.50;25.70
7341;DHT22;6870;50.944;6.932;2023-01-28T14:56:12;20.50;25.90
7341;DHT22;6870;50.944;6.932;2023-01-28T14:58:47;20.40;25.90
7341;DHT22;6870;50.944;6.932;2023-01-28T15:01:19;20.20;25.80
7341;DHT22;6870;50.944;6.932;2023-01-28T15:03:49;20.30;25.80
7341;DHT22;6870;50.944;6.932;2023-01-28T15:06:19;20.40;25.50
7341;DHT22;6870;50.944;6.932;2023-01-28T15:08:50;20.60;25.70
7341;DHT22;6870;50.944;6.932;2023-01-28T15:11:22;20.60;25.50
7341;DHT22;6870;50.944;6.932;2023-01-28T15:13:54;20.90;25.60
7341;DHT22;6870;50.944;6.932;2023-01-28T15:16:26;20.40;25.40
7341;DHT22;6870;50.944;6.932;2023-01-28T15:18:57;20.80;25.60
7341;DHT22;6870;50.944;6.932;2023-01-28T15:21:28;20.60;25.50
7341;DHT22;6870;50.944;6.932;2023-01-28T15:23:58;20.80;25.40
7341;DHT22;6870;50.944;6.932;2023-01-28T15:26:31;20.40;25.20
7341;DHT22;6870;50.944;6.932;2023-01-28T15:29:00;20.60;25.50
7341;DHT22;6870;50.944;6.932;2023-01-28T15:31:29;20.80;25.50
7341;DHT22;6870;50.944;6.932;2023-01-28T15:34:01;20.50;25.10
7341;DHT22;6870;50.944;6.932;2023-01-28T15:36:30;20.40;25.60
7341;DHT22;6870;50.944;6.932;2023-01-28T15:38:59;20.60;25.90
7341;DHT22;6870;50.944;6.932;2023-01-28T15:41:31;20.60;26.00
7341;DHT22;6870;50.944;6.932;2023-01-28T15:44:01;20.90;26.10
7341;DHT22;6870;50.944;6.932;2023-01-28T15:46:30;20.50;26.00
7341;DHT22;6870;50.944;6.932;2023-01-28T15:49:00;20.40;26.00
7341;DHT22;6870;50.944;6.932;2023-01-28T15:51:31;20.20;26.00
7341;DHT22;6870;50.944;6.932;2023-01-28T15:54:02;20.30;26.30
7341;DHT22;6870;50.944;6.932;2023-01-28T15:56:34;20.30;26.40
7341;DHT22;6870;50.944;6.932;2023-01-28T15:59:17;20.40;26.50
7341;DHT22;6870;50.944;6.932;2023-01-28T16:01:48;20.20;26.10
7341;DHT22;6870;50.944;6.932;2023-01-28T16:04:23;20.20;26.50
7341;DHT22;6870;50.944;6.932;2023-01-28T16:06:53;20.30;26.40
7341;DHT22;6870;50.944;6.932;2023-01-28T16:09:24;20.20;26.70
7341;DHT22;6870;50.944;6.932;2023-01-28T16:12:02;20.30;26.80
7341;DHT22;6870;50.944;6.932;2023-01-28T16:14:33;20.00;26.60
7341;DHT22;6870;50.944;6.932;2023-01-28T16:17:05;20.20;26.80
7341;DHT22;6870;50.944;6.932;2023-01-28T16:19:38;20.10;26.90
7341;DHT22;6870;50.944;6.932;2023-01-28T16:22:18;19.90;26.80
7341;DHT22;6870;50.944;6.932;2023-01-28T16:24:48;20.10;27.10
7341;DHT22;6870;50.944;6.932;2023-01-28T16:27:24;20.00;26.90
7341;DHT22;6870;50.944;6.932;2023-01-28T16:29:56;19.90;27.00
7341;DHT22;6870;50.944;6.932;2023-01-28T16:32:27;19.80;27.00
7341;DHT22;6870;50.944;6.932;2023-01-28T16:34:56;19.90;26.80
7341;DHT22;6870;50.944;6.932;2023-01-28T16:37:24;19.70;27.10
7341;DHT22;6870;50.944;6.932;2023-01-28T16:39:57;19.70;27.20
7341;DHT22;6870;50.944;6.932;2023-01-28T16:42:30;19.80;27.20
7341;DHT22;6870;50.944;6.932;2023-01-28T16:44:58;19.70;27.30
7341;DHT22;6870;50.944;6.932;2023-01-28T16:47:26;19.90;27.60